Impacts TAF Board INFO
FOR SITUATIONAL AWARENESS. NOT TO BE USED FOR FLIGHT PLANNING PURPOSES.
IDs:

KDEN - Denver Intl, CO, US

Issued at 1500 UTC 19 Jan 2018
Updated at 1513 UTC 19 Jan 2018
Potential Impact None Slight Moderate High
Time1453Z 19/16Z 19/17Z 19/18Z 19/19Z 19/20Z 19/21Z 19/22Z 19/23Z 20/00Z 20/01Z 20/02Z 20/03Z 20/04Z>>
Type OBS PRVL PRVL PRVL PRVL PRVL PRVL PRVL PRVL PRVL PRVL PRVL PRVL PRVL
VIS 10 >6 >6 >6 >6 >6 >6 >6 >6 >6 >6 >6 >6 >6
CIG 220 220 220 220 220 220 220 220 220 220 220 220 220 220
Cover BKN BKN BKN BKN BKN BKN BKN BKN BKN BKN BKN BKN BKN BKN
FltCat VFR VFR VFR VFR VFR VFR VFR VFR VFR VFR VFR VFR VFR VFR
WX -- -- -- -- -- -- -- -- -- -- -- -- -- --
WDir 260 250 250 250 250 250 250 250 250 200 200 200 200 200
WSpd 9 10 10 10 10 10 10 10 10 10 10 10 10 10
WGst -- -- -- -- -- -- -- -- -- -- -- -- -- --

Raw TAF
KDEN 191500Z 1915/2018 25010KT P6SM FEW140 BKN220
  FM200000 20010KT P6SM FEW140 BKN220


Raw METAR
KDEN 191453Z 26009KT 10SM FEW140 BKN220 08/M09 A2980 RMK AO2 SLP069 T00831094 55006
KDEN 191353Z 20015KT 10SM FEW100 SCT180 BKN250 10/M11 A2979 RMK AO2 SLP060 T01001106
KDEN 191253Z 20010KT 10SM BKN220 07/M11 A2979 RMK AO2 SLP059 T00721106

METAR Board
Radar Display
Forecast Discussion

FOR SITUATIONAL AWARENESS. NOT TO BE USED FOR FLIGHT PLANNING PURPOSES.